sensor_id;sensor_type;location;lat;lon;timestamp;temperature;humidity
63960;DHT22;50136;51.374;0.096;2024-03-23T01:00:33;5.80;99.90
63960;DHT22;50136;51.374;0.096;2024-03-23T01:10:34;5.80;99.90
63960;DHT22;50136;51.374;0.096;2024-03-23T01:20:36;5.80;99.90
63960;DHT22;50136;51.374;0.096;2024-03-23T01:30:37;5.70;99.90
63960;DHT22;50136;51.374;0.096;2024-03-23T01:40:40;5.70;99.90
63960;DHT22;50136;51.374;0.096;2024-03-23T01:50:41;5.70;99.90
63960;DHT22;50136;51.374;0.096;2024-03-23T02:00:44;5.60;99.90
63960;DHT22;50136;51.374;0.096;2024-03-23T02:10:44;5.60;99.90
63960;DHT22;50136;51.374;0.096;2024-03-23T02:20:47;5.50;99.90
63960;DHT22;50136;51.374;0.096;2024-03-23T02:30:49;5.40;99.90
63960;DHT22;50136;51.374;0.096;2024-03-23T02:40:50;5.40;99.90
63960;DHT22;50136;51.374;0.096;2024-03-23T02:50:53;5.40;99.90
63960;DHT22;50136;51.374;0.096;2024-03-23T03:00:54;5.20;99.90
63960;DHT22;50136;51.374;0.096;2024-03-23T03:10:56;5.20;99.90
63960;DHT22;50136;51.374;0.096;2024-03-23T03:20:57;5.10;99.90
63960;DHT22;50136;51.374;0.096;2024-03-23T03:30:59;5.00;99.90
63960;DHT22;50136;51.374;0.096;2024-03-23T03:41:01;4.90;99.90
63960;DHT22;50136;51.374;0.096;2024-03-23T03:51:03;4.80;99.90
63960;DHT22;50136;51.374;0.096;2024-03-23T04:01:05;4.80;99.90
63960;DHT22;50136;51.374;0.096;2024-03-23T04:11:07;4.80;99.90
63960;DHT22;50136;51.374;0.096;2024-03-23T04:21:08;4.70;99.90
63960;DHT22;50136;51.374;0.096;2024-03-23T04:31:10;4.70;99.90
63960;DHT22;50136;51.374;0.096;2024-03-23T04:41:11;4.60;99.90
63960;DHT22;50136;51.374;0.096;2024-03-23T04:51:22;4.70;99.90
63960;DHT22;50136;51.374;0.096;2024-03-23T05:01:24;4.60;99.90
63960;DHT22;50136;51.374;0.096;2024-03-23T05:11:26;4.60;99.90
63960;DHT22;50136;51.374;0.096;2024-03-23T05:21:27;4.60;99.90
63960;DHT22;50136;51.374;0.096;2024-03-23T05:31:31;4.50;99.90
63960;DHT22;50136;51.374;0.096;2024-03-23T05:41:32;4.50;99.90
63960;DHT22;50136;51.374;0.096;2024-03-23T05:51:34;4.40;99.90
63960;DHT22;50136;51.374;0.096;2024-03-23T06:01:35;4.40;99.90
63960;DHT22;50136;51.374;0.096;2024-03-23T06:11:37;4.40;99.90
63960;DHT22;50136;51.374;0.096;2024-03-23T06:21:43;4.40;99.90
63960;DHT22;50136;51.374;0.096;2024-03-23T06:31:53;4.40;99.90
63960;DHT22;50136;51.374;0.096;2024-03-23T06:41:54;4.60;99.90
63960;DHT22;50136;51.374;0.096;2024-03-23T06:51:56;4.70;99.90
63960;DHT22;50136;51.374;0.096;2024-03-23T07:01:57;4.80;99.90
63960;DHT22;50136;51.374;0.096;2024-03-23T07:12:00;5.00;99.90
63960;DHT22;50136;51.374;0.096;2024-03-23T07:22:01;5.20;99.90
63960;DHT22;50136;51.374;0.096;2024-03-23T07:32:03;5.50;99.90
63960;DHT22;50136;51.374;0.096;2024-03-23T07:42:05;5.70;99.90
63960;DHT22;50136;51.374;0.096;2024-03-23T07:52:07;5.90;99.90
63960;DHT22;50136;51.374;0.096;2024-03-23T08:02:08;6.20;99.90
63960;DHT22;50136;51.374;0.096;2024-03-23T08:12:11;6.40;99.90
63960;DHT22;50136;51.374;0.096;2024-03-23T08:22:12;6.70;99.90
63960;DHT22;50136;51.374;0.096;2024-03-23T08:32:14;6.90;99.90
63960;DHT22;50136;51.374;0.096;2024-03-23T08:42:15;7.30;99.90
63960;DHT22;50136;51.374;0.096;2024-03-23T08:52:17;7.60;99.90
63960;DHT22;50136;51.374;0.096;2024-03-23T09:02:18;7.80;99.90
63960;DHT22;50136;51.374;0.096;2024-03-23T09:12:21;8.20;99.90
63960;DHT22;50136;51.374;0.096;2024-03-23T09:22:22;9.20;99.90
63960;DHT22;50136;51.374;0.096;2024-03-23T09:32:24;11.20;99.90
63960;DHT22;50136;51.374;0.096;2024-03-23T09:42:25;11.70;99.90
63960;DHT22;50136;51.374;0.096;2024-03-23T09:52:27;12.10;99.70
63960;DHT22;50136;51.374;0.096;2024-03-23T10:02:29;13.40;98.80
63960;DHT22;50136;51.374;0.096;2024-03-23T10:12:31;12.60;97.40
63960;DHT22;50136;51.374;0.096;2024-03-23T10:22:37;11.10;99.50
63960;DHT22;50136;51.374;0.096;2024-03-23T10:32:39;10.20;99.90
63960;DHT22;50136;51.374;0.096;2024-03-23T10:42:41;13.30;98.80
63960;DHT22;50136;51.374;0.096;2024-03-23T10:52:47;12.90;97.00
63960;DHT22;50136;51.374;0.096;2024-03-23T11:14:22;12.20;97.00
63960;DHT22;50136;51.374;0.096;2024-03-23T11:24:23;11.90;97.00
63960;DHT22;50136;51.374;0.096;2024-03-23T11:34:25;12.00;97.40
63960;DHT22;50136;51.374;0.096;2024-03-23T11:44:27;11.80;97.40
63960;DHT22;50136;51.374;0.096;2024-03-23T11:54:29;11.80;96.30
63960;DHT22;50136;51.374;0.096;2024-03-23T12:04:30;12.00;96.30
63960;DHT22;50136;51.374;0.096;2024-03-23T12:14:32;12.00;97.10
63960;DHT22;50136;51.374;0.096;2024-03-23T12:24:33;11.90;95.00
63960;DHT22;50136;51.374;0.096;2024-03-23T12:34:36;12.20;96.20
63960;DHT22;50136;51.374;0.096;2024-03-23T12:44:37;12.50;94.70
63960;DHT22;50136;51.374;0.096;2024-03-23T12:54:39;12.20;95.40
63960;DHT22;50136;51.374;0.096;2024-03-23T13:04:40;12.60;96.10
63960;DHT22;50136;51.374;0.096;2024-03-23T13:14:43;12.60;96.60
63960;DHT22;50136;51.374;0.096;2024-03-23T13:24:44;11.90;98.00
63960;DHT22;50136;51.374;0.096;2024-03-23T13:34:46;11.40;99.50
63960;DHT22;50136;51.374;0.096;2024-03-23T13:44:48;11.80;99.30
63960;DHT22;50136;51.374;0.096;2024-03-23T13:54:51;11.00;99.90
63960;DHT22;50136;51.374;0.096;2024-03-23T14:04:52;9.50;99.90
63960;DHT22;50136;51.374;0.096;2024-03-23T14:14:55;7.10;99.90
63960;DHT22;50136;51.374;0.096;2024-03-23T14:24:56;7.00;99.90
63960;DHT22;50136;51.374;0.096;2024-03-23T14:34:58;7.30;99.90
63960;DHT22;50136;51.374;0.096;2024-03-23T14:44:59;8.10;99.90
63960;DHT22;50136;51.374;0.096;2024-03-23T14:55:02;9.00;99.90
63960;DHT22;50136;51.374;0.096;2024-03-23T15:05:04;9.80;99.90
63960;DHT22;50136;51.374;0.096;2024-03-23T15:15:07;10.10;99.90
63960;DHT22;50136;51.374;0.096;2024-03-23T15:25:08;9.70;99.90
63960;DHT22;50136;51.374;0.096;2024-03-23T15:35:11;10.00;99.90
63960;DHT22;50136;51.374;0.096;2024-03-23T15:45:12;10.30;99.90
63960;DHT22;50136;51.374;0.096;2024-03-23T15:55:14;10.60;99.90
63960;DHT22;50136;51.374;0.096;2024-03-23T16:05:15;10.10;99.90
63960;DHT22;50136;51.374;0.096;2024-03-23T16:15:18;9.30;99.90
63960;DHT22;50136;51.374;0.096;2024-03-23T16:25:19;7.10;99.90
63960;DHT22;50136;51.374;0.096;2024-03-23T16:35:21;7.70;99.90
63960;DHT22;50136;51.374;0.096;2024-03-23T16:45:22;8.50;99.90
63960;DHT22;50136;51.374;0.096;2024-03-23T16:55:24;8.80;99.90
63960;DHT22;50136;51.374;0.096;2024-03-23T17:05:25;8.90;99.90
63960;DHT22;50136;51.374;0.096;2024-03-23T17:15:27;8.90;99.90
63960;DHT22;50136;51.374;0.096;2024-03-23T17:25:28;8.60;99.90
63960;DHT22;50136;51.374;0.096;2024-03-23T17:35:31;8.40;99.90
63960;DHT22;50136;51.374;0.096;2024-03-23T17:45:32;8.30;99.90
63960;DHT22;50136;51.374;0.096;2024-03-23T17:55:34;8.20;99.90
63960;DHT22;50136;51.374;0.096;2024-03-23T18:05:35;8.10;99.90
63960;DHT22;50136;51.374;0.096;2024-03-23T18:15:37;8.00;99.90
63960;DHT22;50136;51.374;0.096;2024-03-23T18:25:38;7.80;99.90
63960;DHT22;50136;51.374;0.096;2024-03-23T18:35:41;7.70;99.90
63960;DHT22;50136;51.374;0.096;2024-03-23T18:45:45;7.60;99.90
63960;DHT22;50136;51.374;0.096;2024-03-23T18:55:56;7.50;99.90
63960;DHT22;50136;51.374;0.096;2024-03-23T19:05:58;7.40;99.90
63960;DHT22;50136;51.374;0.096;2024-03-23T19:16:01;7.50;99.90
63960;DHT22;50136;51.374;0.096;2024-03-23T19:26:03;7.60;99.90
63960;DHT22;50136;51.374;0.096;2024-03-23T19:36:06;7.70;99.90
63960;DHT22;50136;51.374;0.096;2024-03-23T19:46:07;7.60;99.90
63960;DHT22;50136;51.374;0.096;2024-03-23T19:56:09;7.60;99.90
63960;DHT22;50136;51.374;0.096;2024-03-23T20:06:11;7.60;99.90
63960;DHT22;50136;51.374;0.096;2024-03-23T20:16:13;7.60;99.90
63960;DHT22;50136;51.374;0.096;2024-03-23T20:26:14;7.40;99.90
63960;DHT22;50136;51.374;0.096;2024-03-23T20:36:16;7.20;99.90
63960;DHT22;50136;51.374;0.096;2024-03-23T20:46:17;7.20;99.90
63960;DHT22;50136;51.374;0.096;2024-03-23T20:56:20;7.30;99.90
63960;DHT22;50136;51.374;0.096;2024-03-23T21:06:21;7.30;99.90
63960;DHT22;50136;51.374;0.096;2024-03-23T21:16:23;7.10;99.90
63960;DHT22;50136;51.374;0.096;2024-03-23T21:26:24;7.10;99.90
63960;DHT22;50136;51.374;0.096;2024-03-23T21:36:26;7.00;99.90
63960;DHT22;50136;51.374;0.096;2024-03-23T21:46:27;7.10;99.90
63960;DHT22;50136;51.374;0.096;2024-03-23T21:56:30;7.10;99.90
63960;DHT22;50136;51.374;0.096;2024-03-23T22:06:31;7.20;99.90
63960;DHT22;50136;51.374;0.096;2024-03-23T22:16:33;7.20;99.90
63960;DHT22;50136;51.374;0.096;2024-03-23T22:26:34;7.20;99.90
63960;DHT22;50136;51.374;0.096;2024-03-23T22:36:36;7.20;99.90
63960;DHT22;50136;51.374;0.096;2024-03-23T22:46:37;7.20;99.90
63960;DHT22;50136;51.374;0.096;2024-03-23T22:56:40;7.10;99.90
63960;DHT22;50136;51.374;0.096;2024-03-23T23:06:41;7.10;99.90
63960;DHT22;50136;51.374;0.096;2024-03-23T23:16:43;7.10;99.90
63960;DHT22;50136;51.374;0.096;2024-03-23T23:26:44;6.90;99.90
63960;DHT22;50136;51.374;0.096;2024-03-23T23:36:46;6.80;99.90
63960;DHT22;50136;51.374;0.096;2024-03-23T23:46:47;6.60;99.90
63960;DHT22;50136;51.374;0.096;2024-03-23T23:56:50;6.60;99.90
